Flight Track Log - Related Links

Times and Time Zones

All times are in EDT time to prevent confusion due to time zone crossing. See the JBU185 flight status page for this flight to view local times or setup timezone preferences in your user account.

Time Position Orientation Groundspeed Altitude Reporting Facility
EDT Latitude Longitude Course Direction KTS MPH feet Rate Location/Type
Mon 04:58:25 PM 40.6167 -73.7667 226° Southwest 174 200 1,500  Level New York TRACON
Mon 04:59:25 PM 40.5500 -73.7667 180° South 249 287 3,200 2,350 Climbing New York TRACON
Mon 05:00:25 PM 40.5000 -73.8167 217° Southwest 254 292 6,200 2,650 Climbing New York TRACON
Mon 05:01:00 PM 40.3664 -74.2005 232° Southwest  Level FlightAware Approximate
Mon 05:01:25 PM 40.4667 -73.9000 242° Southwest 273 314 8,500  Level New York TRACON
Mon 05:02:00 PM 40.2999 -74.3113 232° Southwest  Level FlightAware Approximate
Mon 05:02:25 PM 40.4167 -73.9833 232° Southwest 289 333 10,600  Level New York TRACON
Mon 05:03:00 PM 40.2360 -74.4187 226° Southwest  Level FlightAware Approximate
Mon 05:03:31 PM 40.3667 -74.1000 241° Southwest 351 404 11,000  Level New York TRACON
Mon 05:04:31 PM 40.3333 -74.2167 249° West 359 413 12,700 1,789 Climbing New York TRACON
Mon 05:05:25 PM 40.2833 -74.3167 237° Southwest 369 425 14,400 1,508 Climbing New York TRACON
Mon 05:07:00 PM 40.2868 -74.5146 259° West  Level Estimated
Mon 05:07:34 PM 40.1933 -74.5942 259° West 384 442 17,300  Level New York Center
Mon 05:08:34 PM 40.1847 -74.7294 265° West 384 442 18,600 1,339 Climbing New York Center
Mon 05:09:35 PM 40.1736 -74.8728 264° West 396 456 20,000 1,537 Climbing New York Center
Mon 05:10:35 PM 40.1622 -75.0189 264° West 396 456 21,700 1,835 Climbing New York Center
Mon 05:11:36 PM 40.1528 -75.1594 265° West 401 461 23,700 1,966 Climbing New York Center
Mon 05:12:34 PM 40.1394 -75.2917 263° West 396 456 25,600 1,900 Climbing New York Center
Mon 05:13:36 PM 40.1306 -75.4106 264° West 378 435 27,500 1,377 Climbing New York Center
Mon 05:14:36 PM 40.1194 -75.5375 264° West 367 422 28,400 800 Climbing New York Center
Mon 05:15:36 PM 40.1100 -75.6644 264° West 361 415 29,100 712 Climbing New York Center
Mon 05:16:34 PM 40.0958 -75.7992 262° West 366 421 29,800 706 Climbing New York Center
Mon 05:17:35 PM 40.0839 -75.9367 264° West 371 427 30,500 738 Climbing New York Center
Mon 05:18:36 PM 40.0736 -76.0714 264° West 382 440 31,300 706 Climbing New York Center
Mon 05:19:34 PM 40.0447 -76.2047 254° West 387 445 31,900 356 Climbing New York Center
Mon 05:20:34 PM 39.9944 -76.3392 244° Southwest 397 457 32,000 49 Climbing New York Center
Mon 05:21:36 PM 39.9381 -76.4756 242° Southwest 415 478 32,000  Level New York Center
Mon 05:22:36 PM 39.8856 -76.6092 243° Southwest 420 483 32,000  Level New York Center
Mon 05:23:34 PM 39.8308 -76.7453 242° Southwest 420 483 32,000  Level New York Center
Mon 05:24:03 PM 39.7992 -76.8231 242° Southwest 423 487 32,000  Level Washington Center
Mon 05:25:03 PM 39.7475 -76.9569 243° Southwest 412 474 32,000  Level Washington Center
Mon 05:26:03 PM 39.6939 -77.0908 243° Southwest 412 474 32,000  Level Washington Center
Mon 05:27:03 PM 39.6403 -77.2192 242° Southwest 412 474 32,000  Level Washington Center
Mon 05:28:03 PM 39.5861 -77.3525 242° Southwest 412 474 32,000  Level Washington Center
Mon 05:29:03 PM 39.5342 -77.4858 243° Southwest 412 474 32,000  Level Washington Center
Mon 05:30:03 PM 39.4800 -77.6189 242° Southwest 417 480 32,000  Level Washington Center
Mon 05:31:03 PM 39.4256 -77.7517 242° Southwest 417 480 32,000  Level Washington Center
Mon 05:32:03 PM 39.3711 -77.8842 242° Southwest 417 480 32,000  Level Washington Center
Mon 05:33:03 PM 39.3183 -78.0167 243° Southwest 417 480 32,000  Level Washington Center
Mon 05:34:03 PM 39.2678 -78.1439 243° Southwest 412 474 32,000  Level Washington Center
Mon 05:35:03 PM 39.2194 -78.2653 243° Southwest 412 474 32,000  Level Washington Center
Mon 05:36:03 PM 39.1664 -78.3919 242° Southwest 412 474 32,000  Level Washington Center
Mon 05:37:03 PM 39.1153 -78.5236 243° Southwest 412 474 32,000  Level Washington Center
Mon 05:38:03 PM 39.0622 -78.6525 242° Southwest 407 468 32,000  Level Washington Center
Mon 05:39:03 PM 39.0086 -78.7867 243° Southwest 407 468 32,000  Level Washington Center
Mon 05:40:03 PM 38.9550 -78.9125 241° Southwest 407 468 32,000  Level Washington Center
Mon 05:41:03 PM 38.9036 -79.0408 243° Southwest 407 468 32,000  Level Washington Center
Mon 05:42:03 PM 38.8497 -79.1714 242° Southwest 407 468 32,000  Level Washington Center
Mon 05:43:03 PM 38.8183 -79.3111 254° West 407 468 32,000  Level Washington Center
Mon 05:44:03 PM 38.7908 -79.4536 256° West 407 468 32,000  Level Washington Center
Mon 05:45:03 PM 38.7717 -79.5992 260° West 412 474 32,000  Level Washington Center
Mon 05:46:03 PM 38.7458 -79.7414 257° West 418 481 32,000  Level Washington Center
Mon 05:47:03 PM 38.7200 -79.8811 257° West 418 481 32,000  Level Washington Center
Mon 05:48:03 PM 38.6942 -80.0233 257° West 412 474 32,000  Level Washington Center
Mon 05:49:42 PM 38.6486 -80.2397 255° West 410 472 32,000  Level Indianapolis Center
Mon 05:50:44 PM 38.6172 -80.4083 257° West 405 466 32,000  Level Indianapolis Center
Mon 05:51:46 PM 38.5922 -80.5469 257° West 400 460 32,000  Level Indianapolis Center
Mon 05:52:48 PM 38.5642 -80.6861 256° West 404 465 32,000  Level Indianapolis Center
Mon 05:53:50 PM 38.5444 -80.8283 260° West 402 463 32,000  Level Indianapolis Center
Mon 05:54:52 PM 38.5350 -80.9692 265° West 401 461 32,000  Level Indianapolis Center
Mon 05:55:54 PM 38.5244 -81.1119 265° West 402 463 32,000  Level Indianapolis Center
Mon 05:56:56 PM 38.5136 -81.2553 265° West 404 465 32,000  Level Indianapolis Center
Mon 05:57:58 PM 38.5025 -81.4000 264° West 404 465 32,000  Level Indianapolis Center
Mon 05:59:00 PM 38.4894 -81.5756 265° West 408 470 32,000  Level Indianapolis Center
Mon 06:00:02 PM 38.4778 -81.7206 264° West 406 467 32,000  Level Indianapolis Center
Mon 06:01:04 PM 38.4664 -81.8644 264° West 405 466 32,000  Level Indianapolis Center
Mon 06:02:06 PM 38.4547 -82.0072 264° West 404 465 32,000  Level Indianapolis Center
Mon 06:03:08 PM 38.4425 -82.1492 264° West 402 463 32,000  Level Indianapolis Center
Mon 06:04:10 PM 38.4303 -82.2928 264° West 406 467 32,000  Level Indianapolis Center
Mon 06:05:12 PM 38.4183 -82.4356 264° West 405 466 32,000  Level Indianapolis Center
Mon 06:06:14 PM 38.4050 -82.5853 264° West 405 466 32,000  Level Indianapolis Center
Mon 06:07:16 PM 38.3903 -82.7511 264° West 404 465 32,000  Level Indianapolis Center
Mon 06:08:18 PM 38.3783 -82.8944 264° West 406 467 32,000  Level Indianapolis Center
Mon 06:09:20 PM 38.3650 -83.0358 263° West 404 465 32,000  Level Indianapolis Center
Mon 06:10:22 PM 38.3514 -83.1772 263° West 403 464 32,000  Level Indianapolis Center
Mon 06:11:24 PM 38.3214 -83.3158 255° West 406 467 32,000 581 Level Indianapolis Center
Mon 06:12:26 PM 38.2806 -83.4739 252° West 403 464 33,200 968 Climbing Indianapolis Center
Mon 06:13:28 PM 38.2653 -83.6061 262° West 388 447 34,000 823 Climbing Indianapolis Center
Mon 06:14:30 PM 38.2539 -83.7428 264° West 388 447 34,900 726 Climbing Indianapolis Center
Mon 06:15:32 PM 38.2456 -83.8758 265° West 381 438 35,500 532 Climbing Indianapolis Center
Mon 06:16:34 PM 38.2353 -84.0092 264° West 379 436 36,000 242 Climbing Indianapolis Center
Mon 06:17:36 PM 38.2242 -84.1414 264° West 378 435 36,000  Level Indianapolis Center
Mon 06:18:38 PM 38.2111 -84.2981 264° West 381 438 36,000  Level Indianapolis Center
Mon 06:19:40 PM 38.2011 -84.4300 265° West 378 435 36,000  Level Indianapolis Center
Mon 06:20:42 PM 38.1906 -84.5622 264° West 377 434 36,000  Level Indianapolis Center
Mon 06:21:44 PM 38.1794 -84.6953 264° West 379 436 36,000  Level Indianapolis Center
Mon 06:22:46 PM 38.1683 -84.8303 264° West 382 440 36,000  Level Indianapolis Center
Mon 06:23:48 PM 38.1547 -84.9856 264° West 381 438 36,000  Level Indianapolis Center
Mon 06:24:50 PM 38.1439 -85.1192 264° West 380 437 36,000  Level Indianapolis Center
Mon 06:25:52 PM 38.1286 -85.2644 262° West 386 444 36,000  Level Indianapolis Center
Mon 06:26:54 PM 38.1194 -85.3978 265° West 382 440 36,000  Level Indianapolis Center
Mon 06:27:56 PM 38.1061 -85.5336 263° West 383 441 36,000  Level Indianapolis Center
Mon 06:28:58 PM 38.0964 -85.6681 265° West 383 441 36,000  Level Indianapolis Center
Mon 06:30:00 PM 38.0869 -85.8050 265° West 387 445 36,000  Level Indianapolis Center
Mon 06:31:02 PM 38.0769 -85.9408 265° West 385 443 36,000  Level Indianapolis Center
Mon 06:32:04 PM 38.0669 -86.0769 265° West 386 444 36,000  Level Indianapolis Center
Mon 06:33:06 PM 38.0569 -86.2128 265° West 384 442 36,000  Level Indianapolis Center
Mon 06:34:08 PM 38.0431 -86.3764 264° West 386 444 36,000  Level Indianapolis Center
Mon 06:35:10 PM 38.0336 -86.5111 265° West 382 440 36,000  Level Indianapolis Center
Mon 06:36:12 PM 38.0228 -86.6461 264° West 382 440 36,000  Level Indianapolis Center
Mon 06:37:14 PM 38.0108 -86.7808 264° West 381 438 36,000  Level Indianapolis Center
Mon 06:38:16 PM 38.0000 -86.9183 264° West 386 444 36,000  Level Indianapolis Center
Mon 06:39:18 PM 37.9892 -87.0561 264° West 388 447 36,000  Level Indianapolis Center
Mon 06:40:20 PM 37.9775 -87.1931 264° West 387 445 36,000  Level Indianapolis Center
Mon 06:41:22 PM 37.9667 -87.3306 264° West 388 447 36,000  Level Indianapolis Center
Mon 06:42:24 PM 37.9547 -87.4661 264° West 385 443 36,000  Level Indianapolis Center
Mon 06:43:26 PM 37.9400 -87.6300 264° West 386 444 36,000  Level Indianapolis Center
Mon 06:44:28 PM 37.9272 -87.7664 263° West 388 447 36,000  Level Indianapolis Center
Mon 06:45:30 PM 37.9158 -87.9031 264° West 388 447 36,000  Level Indianapolis Center
Mon 06:46:32 PM 37.9022 -88.0392 263° West 387 445 36,000  Level Indianapolis Center
Mon 06:47:38 PM 37.8892 -88.1756 263° West 389 448 36,000  Level Kansas City Center
Mon 06:48:40 PM 37.8753 -88.3125 263° West 390 449 36,000  Level Kansas City Center
Mon 06:49:40 PM 37.8625 -88.4494 263° West 391 450 36,000  Level Kansas City Center
Mon 06:50:44 PM 37.8475 -88.6128 263° West 389 448 36,000  Level Kansas City Center
Mon 06:51:44 PM 37.8333 -88.7392 262° West 387 445 36,000  Level Kansas City Center
Mon 06:52:48 PM 37.8203 -88.8717 263° West 384 442 36,000  Level Kansas City Center
Mon 06:53:49 PM 37.8044 -89.0253 263° West 385 443 36,000  Level Kansas City Center
Mon 06:54:52 PM 37.7900 -89.1600 262° West 386 444 36,000  Level Kansas City Center
Mon 06:55:53 PM 37.7764 -89.2953 263° West 388 447 36,000  Level Kansas City Center
Mon 06:56:54 PM 37.7600 -89.4375 262° West 386 444 36,000  Level Kansas City Center
Mon 06:57:55 PM 37.7467 -89.5719 263° West 387 445 36,000  Level Kansas City Center
Mon 06:58:59 PM 37.7322 -89.7069 262° West 386 444 36,000  Level Kansas City Center
Mon 07:00:00 PM 37.7172 -89.8408 262° West 386 444 36,000  Level Kansas City Center
Mon 07:01:02 PM 37.7019 -89.9742 262° West 385 443 36,000  Level Kansas City Center
Mon 07:02:04 PM 37.6875 -90.1086 262° West 385 443 36,000  Level Kansas City Center
Mon 07:03:07 PM 37.6697 -90.2706 262° West 387 445 36,000  Level Kansas City Center
Mon 07:04:07 PM 37.6572 -90.4044 263° West 386 444 36,000  Level Kansas City Center
Mon 07:05:11 PM 37.6444 -90.5364 263° West 382 440 36,000  Level Kansas City Center
Mon 07:06:12 PM 37.6319 -90.6731 263° West 389 448 36,000  Level Kansas City Center
Mon 07:07:12 PM 37.6189 -90.8106 263° West 393 452 36,000  Level Kansas City Center
Mon 07:08:16 PM 37.6053 -90.9553 263° West 391 450 36,000 -48 Level Kansas City Center
Mon 07:09:17 PM 37.5928 -91.0889 263° West 386 444 35,900  Descending Kansas City Center
Mon 07:10:18 PM 37.5800 -91.2228 263° West 384 442 36,000 48 Climbing Kansas City Center
Mon 07:11:22 PM 37.5669 -91.3586 263° West 387 445 36,000  Level Kansas City Center
Mon 07:12:23 PM 37.5500 -91.5194 262° West 385 443 36,000  Level Kansas City Center
Mon 07:13:24 PM 37.5367 -91.6544 263° West 387 445 36,000  Level Kansas City Center
Mon 07:14:28 PM 37.5222 -91.7892 262° West 385 443 36,000  Level Kansas City Center
Mon 07:15:28 PM 37.5100 -91.9231 263° West 383 441 36,000  Level Kansas City Center
Mon 07:16:32 PM 37.4956 -92.0564 262° West 382 440 36,000  Level Kansas City Center
Mon 07:17:32 PM 37.4819 -92.1894 263° West 381 438 36,000  Level Kansas City Center
Mon 07:18:36 PM 37.4681 -92.3228 263° West 381 438 36,000  Level Kansas City Center
Mon 07:19:38 PM 37.4539 -92.4567 262° West 380 437 36,000  Level Kansas City Center
Mon 07:20:39 PM 37.4364 -92.6167 262° West 382 440 36,000  Level Kansas City Center
Mon 07:21:42 PM 37.4231 -92.7489 263° West 380 437 36,000  Level Kansas City Center
Mon 07:22:43 PM 37.4075 -92.8811 262° West 378 435 36,000  Level Kansas City Center
Mon 07:23:47 PM 37.3922 -93.0125 262° West 379 436 36,000  Level Kansas City Center
Mon 07:24:47 PM 37.3781 -93.1450 262° West 380 437 36,000  Level Kansas City Center
Mon 07:25:49 PM 37.3628 -93.2758 262° West 378 435 36,000  Level Kansas City Center
Mon 07:26:52 PM 37.3464 -93.4064 261° West 377 434 36,000  Level Kansas City Center
Mon 07:27:52 PM 37.3292 -93.5383 261° West 379 436 36,000  Level Kansas City Center
Mon 07:28:55 PM 37.3061 -93.6919 259° West 375 432 36,000  Level Kansas City Center
Mon 07:29:58 PM 37.2869 -93.8217 260° West 375 432 36,000  Level Kansas City Center
Mon 07:30:59 PM 37.2678 -93.9528 260° West 379 436 36,000  Level Kansas City Center
Mon 07:32:01 PM 37.2492 -94.0825 260° West 378 435 36,000  Level Kansas City Center
Mon 07:33:02 PM 37.2308 -94.2056 259° West 377 434 36,000  Level Kansas City Center
Mon 07:34:06 PM 37.2114 -94.3342 259° West 376 433 36,000  Level Kansas City Center
Mon 07:35:07 PM 37.1881 -94.4872 259° West 374 430 36,000  Level Kansas City Center
Mon 07:36:07 PM 37.1672 -94.6158 259° West 375 432 36,000  Level Kansas City Center
Mon 07:37:12 PM 37.1483 -94.7447 260° West 376 433 36,000  Level Kansas City Center
Mon 07:38:12 PM 37.1278 -94.8717 259° West 374 430 36,000  Level Kansas City Center
Mon 07:39:15 PM 37.1081 -94.9986 259° West 372 428 36,000  Level Kansas City Center
Mon 07:40:15 PM 37.0881 -95.1250 259° West 372 428 36,000  Level Kansas City Center
Mon 07:41:18 PM 37.0639 -95.2775 259° West 373 429 36,000  Level Kansas City Center
Mon 07:42:19 PM 37.0433 -95.4056 259° West 375 432 36,000  Level Kansas City Center
Mon 07:43:22 PM 37.0244 -95.5358 260° West 379 436 36,000  Level Kansas City Center
Mon 07:44:23 PM 37.0267 -95.6669 271° West 381 438 36,000 -48 Level Kansas City Center
Mon 07:45:27 PM 37.0272 -95.7956 270° West 374 430 35,900  Descending Kansas City Center
Mon 07:46:29 PM 37.0297 -95.9275 271° West 377 434 36,000 49 Climbing Kansas City Center
Mon 07:47:30 PM 37.0317 -96.0850 271° West 379 436 36,000  Level Kansas City Center
Mon 07:48:31 PM 37.0347 -96.2158 272° West 378 435 36,000  Level Kansas City Center
Mon 07:49:32 PM 37.0394 -96.3458 273° West 376 433 36,000  Level Kansas City Center
Mon 07:50:36 PM 37.0447 -96.4769 273° West 378 435 36,000  Level Kansas City Center
Mon 07:51:38 PM 37.0486 -96.6092 272° West 380 437 36,000  Level Kansas City Center
Mon 07:52:38 PM 37.0519 -96.7408 272° West 379 436 36,000  Level Kansas City Center
Mon 07:53:42 PM 37.0394 -96.8883 264° West 385 443 36,000  Level Kansas City Center
Mon 07:54:43 PM 37.0069 -97.0117 252° West 376 433 36,000  Level Kansas City Center
Mon 07:55:44 PM 36.9764 -97.1358 253° West 374 430 36,000  Level Kansas City Center
Mon 07:56:47 PM 36.9450 -97.2600 252° West 375 432 36,000  Level Kansas City Center
Mon 07:57:47 PM 36.9119 -97.3856 252° West 376 433 36,000  Level Kansas City Center
Mon 07:58:49 PM 36.8808 -97.5092 253° West 375 432 36,000  Level Kansas City Center
Mon 07:59:52 PM 36.8489 -97.6333 252° West 375 432 36,000  Level Kansas City Center
Mon 08:00:54 PM 36.8119 -97.7717 252° West 374 430 36,000  Level Kansas City Center
Mon 08:01:55 PM 36.7794 -97.8947 252° West 372 428 36,000  Level Kansas City Center
Mon 08:02:59 PM 36.7472 -98.0183 252° West 374 430 36,000  Level Kansas City Center
Mon 08:03:59 PM 36.7144 -98.1419 252° West 375 432 36,000  Level Kansas City Center
Mon 08:05:00 PM 36.6750 -98.2911 252° West 376 433 36,000  Level Kansas City Center
Mon 08:06:03 PM 36.6428 -98.4164 252° West 379 436 36,000  Level Kansas City Center
Mon 08:07:05 PM 36.6092 -98.5397 251° West 377 434 36,000  Level Kansas City Center
Mon 08:08:05 PM 36.5761 -98.6639 252° West 377 434 36,000  Level Kansas City Center
Mon 08:09:09 PM 36.5431 -98.7878 252° West 378 435 36,000  Level Kansas City Center
Mon 08:10:10 PM 36.5100 -98.9117 252° West 378 435 36,000  Level Kansas City Center
Mon 08:11:12 PM 36.4756 -99.0356 251° West 381 438 36,000 -49 Level Kansas City Center
Mon 08:12:13 PM 36.4358 -99.1833 252° West 378 435 35,900  Descending Kansas City Center
Mon 08:13:17 PM 36.4017 -99.3081 251° West 382 440 36,000 48 Climbing Kansas City Center
Mon 08:14:18 PM 36.3667 -99.4322 251° West 383 441 36,000  Level Kansas City Center
Mon 08:15:19 PM 36.3325 -99.5567 251° West 383 441 36,000  Level Kansas City Center
Mon 08:16:20 PM 36.2978 -99.6808 251° West 383 441 36,000  Level Kansas City Center
Mon 08:17:24 PM 36.2631 -99.8067 251° West 385 443 36,000  Level Kansas City Center
Mon 08:18:24 PM 36.2208 -99.9575 251° West 385 443 36,000  Level Kansas City Center
Mon 08:19:28 PM 36.1831 -100.0844 250° West 390 449 36,000  Level Kansas City Center
Mon 08:20:29 PM 36.1475 -100.2083 250° West 385 443 36,000  Level Kansas City Center
Mon 08:21:32 PM 36.1125 -100.3353 251° West 387 445 36,000  Level Kansas City Center
Mon 08:22:33 PM 36.0756 -100.4606 250° West 388 447 36,000  Level Kansas City Center
Mon 08:22:48 PM 36.0622 -100.5111 252° West 388 447 36,000  Level Albuquerque Center
Mon 08:23:50 PM 36.0253 -100.6375 250° West 389 448 36,000  Level Albuquerque Center
Mon 08:24:51 PM 35.9878 -100.7633 250° West 390 449 36,000  Level Albuquerque Center
Mon 08:25:53 PM 35.9519 -100.8922 251° West 393 452 36,000  Level Albuquerque Center
Mon 08:26:55 PM 35.9147 -101.0200 250° West 395 455 36,000  Level Albuquerque Center
Mon 08:27:56 PM 35.8775 -101.1444 250° West 393 452 36,000  Level Albuquerque Center
Mon 08:28:58 PM 35.8403 -101.2700 250° West 392 451 36,000  Level Albuquerque Center
Mon 08:29:59 PM 35.8019 -101.4242 253° West 396 456 36,000  Level Albuquerque Center
Mon 08:31:01 PM 35.7878 -101.5528 262° West 388 447 36,000  Level Albuquerque Center
Mon 08:32:03 PM 35.7728 -101.6817 262° West 384 442 36,000 -49 Level Albuquerque Center
Mon 08:33:04 PM 35.7572 -101.8114 262° West 385 443 35,900  Descending Albuquerque Center
Mon 08:34:06 PM 35.7411 -101.9383 261° West 381 438 36,000 49 Climbing Albuquerque Center
Mon 08:35:07 PM 35.7256 -102.0686 262° West 386 444 36,000  Level Albuquerque Center
Mon 08:36:09 PM 35.7058 -102.2267 261° West 391 450 36,000  Level Albuquerque Center
Mon 08:37:10 PM 35.6892 -102.3569 261° West 390 449 36,000  Level Albuquerque Center
Mon 08:38:12 PM 35.6722 -102.4878 261° West 390 449 36,000  Level Albuquerque Center
Mon 08:39:14 PM 35.6558 -102.6189 261° West 391 450 36,000  Level Albuquerque Center
Mon 08:40:15 PM 35.6389 -102.7506 261° West 392 451 36,000  Level Albuquerque Center
Mon 08:41:17 PM 35.6219 -102.8828 261° West 394 453 36,000  Level Albuquerque Center
Mon 08:42:18 PM 35.6047 -103.0192 261° West 398 458 36,000  Level Albuquerque Center
Mon 08:43:20 PM 35.5836 -103.1769 261° West 399 459 36,000  Level Albuquerque Center
Mon 08:44:22 PM 35.5664 -103.3114 261° West 397 457 36,000  Level Albuquerque Center
Mon 08:45:23 PM 35.5489 -103.4422 261° West 389 448 36,000 -49 Level Albuquerque Center
Mon 08:46:25 PM 35.5306 -103.5731 260° West 388 447 35,900  Descending Albuquerque Center
Mon 08:47:27 PM 35.5133 -103.7031 261° West 385 443 36,000 49 Climbing Albuquerque Center
Mon 08:48:28 PM 35.4961 -103.8328 261° West 384 442 36,000  Level Albuquerque Center
Mon 08:49:30 PM 35.4775 -103.9631 260° West 385 443 36,000  Level Albuquerque Center
Mon 08:50:32 PM 35.4597 -104.0944 261° West 389 448 36,000  Level Albuquerque Center
Mon 08:51:33 PM 35.4383 -104.2481 260° West 393 452 36,000  Level Albuquerque Center
Mon 08:52:35 PM 35.4186 -104.3781 259° West 391 450 36,000  Level Albuquerque Center
Mon 08:53:36 PM 35.3994 -104.5094 260° West 391 450 36,000  Level Albuquerque Center
Mon 08:54:38 PM 35.3797 -104.6425 260° West 395 455 36,000  Level Albuquerque Center
Mon 08:55:40 PM 35.3608 -104.7753 260° West 394 453 36,000  Level Albuquerque Center
Mon 08:56:41 PM 35.3411 -104.9058 260° West 390 449 36,000  Level Albuquerque Center
Mon 08:57:43 PM 35.3217 -105.0381 260° West 390 449 36,000 -48 Level Albuquerque Center
Mon 08:58:45 PM 35.2983 -105.1881 259° West 384 442 35,900  Descending Albuquerque Center
Mon 08:59:46 PM 35.2803 -105.3119 260° West 373 429 36,000 49 Climbing Albuquerque Center
Mon 09:00:48 PM 35.2614 -105.4353 259° West 367 422 36,000  Level Albuquerque Center
Mon 09:01:49 PM 35.2419 -105.5639 260° West 377 434 36,000  Level Albuquerque Center
Mon 09:02:51 PM 35.2217 -105.6994 260° West 397 457 36,000  Level Albuquerque Center
Mon 09:03:53 PM 35.1908 -105.8286 254° West 393 452 36,000  Level Albuquerque Center
Mon 09:04:54 PM 35.1483 -105.9550 248° West 395 455 36,000 -49 Level Albuquerque Center
Mon 09:05:56 PM 35.1133 -106.0778 251° West 382 440 35,900 -48 Descending Albuquerque Center
Mon 09:06:58 PM 35.0764 -106.2036 250° West 381 438 35,900 49 Level Albuquerque Center
Mon 09:07:59 PM 35.0392 -106.3300 250° West 391 450 36,000 49 Climbing Albuquerque Center
Mon 09:09:01 PM 35.0019 -106.4558 250° West 393 452 36,000  Level Albuquerque Center
Mon 09:10:02 PM 34.9547 -106.5847 246° West 394 453 36,000  Level Albuquerque Center
Mon 09:11:04 PM 34.8906 -106.7081 238° Southwest 387 445 36,000 -49 Level Albuquerque Center
Mon 09:12:05 PM 34.8333 -106.7917 230° Southwest 380 437 35,900  Descending Albuquerque Center
Mon 09:13:07 PM 34.7689 -106.8975 233° Southwest 383 441 36,000 48 Climbing Albuquerque Center
Mon 09:14:09 PM 34.6908 -107.0275 234° Southwest 392 451 36,000  Level Albuquerque Center
Mon 09:15:10 PM 34.6461 -107.1469 246° West 394 453 36,000  Level Albuquerque Center
Mon 09:16:12 PM 34.6108 -107.2761 252° West 399 459 36,000  Level Albuquerque Center
Mon 09:17:13 PM 34.5764 -107.4022 252° West 394 453 36,000 -49 Level Albuquerque Center
Mon 09:18:15 PM 34.5411 -107.5272 251° West 392 451 35,900 -49 Descending Albuquerque Center
Mon 09:19:16 PM 34.5056 -107.6542 251° West 395 455 35,900 49 Level Albuquerque Center
Mon 09:20:18 PM 34.4694 -107.7842 251° West 401 461 36,000 49 Climbing Albuquerque Center
Mon 09:21:19 PM 34.4319 -107.9128 251° West 406 467 36,000  Level Albuquerque Center
Mon 09:22:21 PM 34.3958 -108.0414 251° West 405 466 36,000  Level Albuquerque Center
Mon 09:23:22 PM 34.3614 -108.1683 252° West 399 459 36,000 -49 Level Albuquerque Center
Mon 09:24:24 PM 34.3172 -108.3164 250° West 392 451 35,900 -49 Descending Albuquerque Center
Mon 09:25:25 PM 34.2825 -108.4386 251° West 394 453 35,900 49 Level Albuquerque Center
Mon 09:26:27 PM 34.2464 -108.5631 251° West 395 455 36,000 48 Climbing Albuquerque Center
Mon 09:27:29 PM 34.2094 -108.6853 250° West 394 453 36,000  Level Albuquerque Center
Mon 09:28:30 PM 34.1742 -108.8081 251° West 392 451 36,000  Level Albuquerque Center
Mon 09:29:32 PM 34.1314 -108.9539 251° West 389 448 36,000 -48 Level Albuquerque Center
Mon 09:30:34 PM 34.0947 -109.0736 250° West 387 445 35,900 -49 Descending Albuquerque Center
Mon 09:31:35 PM 34.0594 -109.1944 251° West 387 445 35,900  Level Albuquerque Center
Mon 09:32:36 PM 34.0231 -109.3139 250° West 385 443 35,900  Level Albuquerque Center
Mon 09:33:38 PM 33.9861 -109.4356 250° West 389 448 35,900 49 Level Albuquerque Center
Mon 09:34:39 PM 33.9489 -109.5619 250° West 398 458 36,000 49 Climbing Albuquerque Center
Mon 09:35:41 PM 33.9025 -109.7144 250° West 406 467 36,000  Level Albuquerque Center
Mon 09:36:42 PM 33.8636 -109.8411 250° West 408 470 36,000 -49 Level Albuquerque Center
Mon 09:37:44 PM 33.8267 -109.9658 250° West 403 464 35,900  Descending Albuquerque Center
Mon 09:38:45 PM 33.7883 -110.0919 250° West 406 467 36,000 49 Climbing Albuquerque Center
Mon 09:39:47 PM 33.7475 -110.2203 249° West 409 471 36,000  Level Albuquerque Center
Mon 09:40:48 PM 33.6992 -110.3708 249° West 409 471 36,000 -49 Level Albuquerque Center
Mon 09:41:50 PM 33.6603 -110.4975 250° West 399 459 35,900  Descending Albuquerque Center
Mon 09:42:51 PM 33.6225 -110.6219 250° West 398 458 36,000 49 Climbing Albuquerque Center
Mon 09:43:53 PM 33.5836 -110.7458 249° West 397 457 36,000  Level Albuquerque Center
Mon 09:44:54 PM 33.5444 -110.8717 250° West 400 460 36,000  Level Albuquerque Center
Mon 09:45:56 PM 33.5039 -110.9983 249° West 404 465 36,000  Level Albuquerque Center
Mon 09:46:57 PM 33.4642 -111.1239 249° West 405 466 36,000  Level Albuquerque Center
Mon 09:47:59 PM 33.4233 -111.2514 249° West 408 470 36,000  Level Albuquerque Center
Mon 09:49:00 PM 33.3831 -111.3783 249° West 408 470 36,000  Level Albuquerque Center
Mon 09:50:02 PM 33.3417 -111.5050 249° West 408 470 36,000  Level Albuquerque Center
Mon 09:51:03 PM 33.3014 -111.6297 249° West 403 464 36,000  Level Albuquerque Center
Mon 09:52:05 PM 33.2525 -111.7808 249° West 405 466 36,000 -49 Level Albuquerque Center
Mon 09:53:06 PM 33.2128 -111.9042 249° West 400 460 35,900  Descending Albuquerque Center
Mon 09:54:08 PM 33.1717 -112.0256 248° West 396 456 36,000 49 Climbing Albuquerque Center
Mon 09:55:09 PM 33.1311 -112.1469 248° West 393 452 36,000  Level Albuquerque Center
Mon 09:56:11 PM 33.0881 -112.2781 249° West 394 453 36,000  Level Albuquerque Center
Mon 09:57:12 PM 33.0461 -112.4047 248° West 396 456 36,000 -49 Level Albuquerque Center
Mon 09:58:14 PM 33.0050 -112.5281 248° West 402 463 35,900 -49 Descending Albuquerque Center
Mon 09:59:15 PM 32.9642 -112.6539 249° West 407 468 35,900 49 Level Albuquerque Center
Mon 10:00:17 PM 32.9414 -112.7869 259° West 410 472 36,000 37 Climbing Albuquerque Center
Mon 10:01:56 PM 32.9128 -112.9989 261° West 409 471 36,000  Level Los Angeles Center
Mon 10:02:20 PM 32.9061 -113.0525 262° West 409 471 36,000 -71 Level Albuquerque Center
Mon 10:03:21 PM 32.8883 -113.1811 261° West 402 463 35,900 -49 Descending Albuquerque Center
Mon 10:04:22 PM 32.8664 -113.3369 261° West 402 463 35,900 49 Level Albuquerque Center
Mon 10:05:24 PM 32.8481 -113.4692 261° West 405 466 36,000 49 Climbing Albuquerque Center
Mon 10:06:25 PM 32.8292 -113.6003 260° West 406 467 36,000  Level Albuquerque Center
Mon 10:07:27 PM 32.8100 -113.7322 260° West 407 468 36,000 -48 Level Albuquerque Center
Mon 10:08:29 PM 32.7922 -113.8650 261° West 407 468 35,900  Descending Albuquerque Center
Mon 10:09:29 PM 32.7750 -113.9992 261° West 410 472 36,000 49 Climbing Albuquerque Center
Mon 10:10:31 PM 32.7753 -114.1333 270° West 408 470 36,000  Level Albuquerque Center
Mon 10:11:11 PM 32.7736 -114.2311 269° West 406 467 36,000 -118 Level Los Angeles Center
Mon 10:12:13 PM 32.7717 -114.3644 269° West 403 464 35,800 -1,268 Descending Los Angeles Center
Mon 10:13:14 PM 32.7700 -114.4958 269° West 398 458 33,400 -2,829 Descending Los Angeles Center
Mon 10:14:16 PM 32.7675 -114.6558 269° West 402 463 30,000 -2,758 Descending Los Angeles Center
Mon 10:15:18 PM 32.7636 -114.7850 268° West 393 452 27,700 -2,244 Descending Los Angeles Center
Mon 10:16:19 PM 32.7617 -114.9094 269° West 381 438 25,400 -1,805 Descending Los Angeles Center
Mon 10:17:21 PM 32.7603 -115.0294 269° West 364 419 24,000 -732 Descending Los Angeles Center
Mon 10:18:22 PM 32.7575 -115.1597 269° West 392 451 23,900 -49 Descending Los Angeles Center
Mon 10:19:24 PM 32.7531 -115.3000 268° West 419 482 23,900  Level Los Angeles Center
Mon 10:20:26 PM 32.7500 -115.4378 269° West 417 480 23,900 -537 Level Los Angeles Center
Mon 10:21:27 PM 32.7492 -115.6031 270° West 416 479 22,800 -1,024 Descending Los Angeles Center
Mon 10:22:29 PM 32.7547 -115.7367 273° West 407 468 21,800 -1,065 Descending Los Angeles Center
Mon 10:23:31 PM 32.7575 -115.8697 271° West 402 463 20,600 -1,902 Descending Los Angeles Center
Mon 10:24:32 PM 32.7608 -115.9997 272° West 393 452 17,900 -2,488 Descending Los Angeles Center
Mon 10:25:34 PM 32.7639 -116.1267 272° West 382 440 15,500 -2,341 Descending Los Angeles Center
Mon 10:26:35 PM 32.7661 -116.2511 271° West 375 432 13,100 -2,195 Descending Los Angeles Center
Mon 10:27:37 PM 32.7547 -116.3719 264° West 363 418 11,000 -1,597 Descending Los Angeles Center
Mon 10:28:39 PM 32.7378 -116.4861 260° West 349 402 9,800 -732 Descending Los Angeles Center
Mon 10:29:40 PM 32.7242 -116.5808 260° West 291 335 9,500 -878 Descending Los Angeles Center
Mon 10:30:42 PM 32.6739 -116.6439 227° Southwest 281 323 8,000 -1,694 Descending Los Angeles Center
Mon 10:31:44 PM 32.6536 -116.7325 255° West 254 292 6,000 -1,016 Descending Los Angeles Center
Mon 10:32:46 PM 32.6611 -116.8153 276° West 252 290 5,900 -488 Descending Los Angeles Center
Mon 10:33:47 PM 32.6683 -116.8978 276° West 253 291 5,000 -878 Descending Los Angeles Center
Mon 10:34:49 PM 32.6792 -116.9667 281° West 224 258 4,100 -1,122 Descending Los Angeles Center
Mon 10:35:50 PM 32.6936 -117.0236 287° West 190 219 2,700 -1,024 Descending Los Angeles Center
Mon 10:36:52 PM 32.7047 -117.0717 285° West 162 186 2,000 -744 Descending Los Angeles Center
Mon 10:37:59 PM 32.7167 -117.1167 288° West 137 158 1,100 -756 Descending Southern California TRACON
Mon 10:38:59 PM 32.7333 -117.1667 292° West 136 157 400 -700 Descending Southern California TRACON

Login

Don't have an account? Register now (free) for customized features, flight alerts, and more!